createdAt,value
2022-09-23T00:01:01.650Z,99.90
2022-09-23T00:03:51.572Z,99.90
2022-09-23T00:06:41.315Z,99.90
2022-09-23T00:09:31.935Z,99.90
2022-09-23T00:12:21.070Z,99.90
2022-09-23T00:15:11.709Z,99.90
2022-09-23T00:18:00.581Z,99.90
2022-09-23T00:20:50.095Z,99.90
2022-09-23T00:23:40.702Z,99.90
2022-09-23T00:26:31.239Z,99.90
2022-09-23T00:29:20.847Z,99.90
2022-09-23T00:32:10.005Z,99.90
2022-09-23T00:34:59.363Z,99.90
2022-09-23T00:37:48.570Z,99.90
2022-09-23T00:40:37.891Z,99.90
2022-09-23T00:43:41.755Z,99.90
2022-09-23T00:46:37.247Z,99.90
2022-09-23T00:49:30.763Z,99.90
2022-09-23T00:52:24.508Z,99.90
2022-09-23T00:55:19.416Z,99.90
2022-09-23T00:58:12.086Z,99.90
2022-09-23T01:01:04.399Z,99.90
2022-09-23T01:03:56.222Z,99.90
2022-09-23T01:06:45.661Z,99.90
2022-09-23T01:09:35.545Z,99.90
2022-09-23T01:12:48.345Z,99.90
2022-09-23T01:15:45.549Z,99.90
2022-09-23T01:18:43.941Z,99.90
2022-09-23T01:21:43.909Z,99.90
2022-09-23T01:24:49.639Z,99.90
2022-09-23T01:27:52.592Z,99.90
2022-09-23T01:30:49.812Z,99.90
2022-09-23T01:33:47.588Z,99.90
2022-09-23T01:36:42.999Z,99.90
2022-09-23T01:39:37.149Z,99.90
2022-09-23T01:42:32.950Z,99.90
2022-09-23T01:45:27.557Z,99.90
2022-09-23T01:48:22.885Z,99.90
2022-09-23T01:51:16.740Z,99.90
2022-09-23T01:54:08.677Z,99.90
2022-09-23T01:57:04.258Z,99.90
2022-09-23T01:59:57.800Z,99.90
2022-09-23T02:02:52.958Z,99.90
2022-09-23T02:05:48.018Z,99.90
2022-09-23T02:08:43.486Z,99.90
2022-09-23T02:11:36.447Z,99.90
2022-09-23T02:14:31.010Z,99.90
2022-09-23T02:17:26.814Z,99.90
2022-09-23T02:20:21.163Z,99.90
2022-09-23T02:23:14.871Z,99.90
2022-09-23T02:26:10.499Z,99.90
2022-09-23T02:29:09.867Z,99.90
2022-09-23T02:32:04.119Z,99.90
2022-09-23T02:35:01.334Z,99.90
2022-09-23T06:57:14.926Z,99.90
2022-09-23T07:00:04.914Z,99.90
2022-09-23T07:02:55.095Z,99.90
2022-09-23T07:05:44.420Z,99.90
2022-09-23T07:17:05.709Z,99.90
2022-09-23T07:22:45.791Z,99.90
2022-09-23T07:25:36.947Z,99.90
2022-09-23T07:28:27.262Z,99.90
2022-09-23T07:31:32.617Z,99.90
2022-09-23T07:34:26.575Z,99.90
2022-09-23T07:37:15.651Z,99.90
2022-09-23T07:40:04.654Z,99.90
2022-09-23T07:42:54.129Z,99.90
2022-09-23T07:45:43.926Z,99.90
2022-09-23T07:48:34.867Z,99.90
2022-09-23T07:51:29.846Z,99.90
2022-09-23T07:54:21.546Z,99.90
2022-09-23T07:57:10.641Z,99.90
2022-09-23T08:00:01.152Z,99.90
2022-09-23T08:02:53.012Z,99.90
2022-09-23T08:05:44.684Z,99.90
2022-09-23T08:08:33.302Z,99.90
2022-09-23T08:11:24.054Z,99.90
2022-09-23T08:14:14.423Z,99.90
2022-09-23T08:17:03.485Z,99.90
2022-09-23T08:19:53.115Z,99.90
2022-09-23T08:22:43.963Z,99.90
2022-09-23T08:25:34.743Z,99.90
2022-09-23T08:28:24.305Z,99.90
2022-09-23T08:31:14.421Z,99.90
2022-09-23T08:34:03.393Z,99.90
2022-09-23T08:36:53.443Z,99.90
2022-09-23T08:39:44.649Z,99.90
2022-09-23T08:42:36.547Z,99.90
2022-09-23T08:45:27.705Z,99.90
2022-09-23T08:48:21.372Z,99.90
2022-09-23T08:51:15.996Z,99.90
2022-09-23T08:54:05.543Z,99.90
2022-09-23T08:56:59.648Z,99.90
2022-09-23T09:08:25.237Z,99.90
2022-09-23T09:11:16.852Z,99.90
2022-09-23T09:14:24.929Z,99.90
2022-09-23T09:17:24.903Z,99.90
2022-09-23T09:20:24.884Z,99.90
2022-09-23T09:23:23.114Z,99.90
2022-09-23T09:26:17.972Z,99.90
2022-09-23T09:29:31.184Z,99.90
2022-09-23T09:32:48.743Z,99.90
2022-09-23T09:35:43.687Z,99.90
2022-09-23T09:38:32.889Z,99.90
2022-09-23T09:41:24.741Z,99.90
2022-09-23T09:44:24.462Z,99.90
2022-09-23T09:47:29.901Z,99.90
2022-09-23T09:50:22.227Z,99.90
2022-09-23T09:53:22.340Z,99.90
2022-09-23T09:56:14.342Z,99.90
2022-09-23T09:59:13.003Z,99.90
2022-09-23T10:02:23.329Z,99.90
2022-09-23T10:05:28.669Z,99.90
2022-09-23T10:08:24.850Z,99.90
2022-09-23T10:11:16.878Z,99.90
2022-09-23T10:17:05.777Z,99.90
2022-09-23T10:20:01.037Z,99.90
2022-09-23T10:22:51.269Z,99.90
2022-09-23T10:25:41.932Z,99.90
2022-09-23T10:28:55.881Z,99.90
2022-09-23T10:31:45.548Z,99.90
2022-09-23T10:34:36.263Z,99.90
2022-09-23T10:37:33.706Z,99.90
2022-09-23T10:40:49.111Z,99.90
2022-09-23T10:46:56.014Z,99.90
2022-09-23T10:50:05.507Z,99.90
2022-09-23T10:53:10.620Z,99.90
2022-09-23T10:56:20.059Z,99.40
2022-09-23T10:59:27.418Z,98.90
2022-09-23T11:02:53.005Z,99.30
2022-09-23T11:05:52.603Z,98.60
2022-09-23T11:08:59.286Z,99.90
2022-09-23T11:12:02.814Z,98.40
2022-09-23T11:15:06.812Z,97.60
2022-09-23T11:18:26.807Z,95.40
2022-09-23T11:21:41.841Z,94.10
2022-09-23T11:24:58.282Z,94.80
2022-09-23T11:28:06.611Z,96.10
2022-09-23T11:31:06.338Z,95.10
2022-09-23T11:34:05.865Z,94.50
2022-09-23T11:37:03.533Z,97.80
2022-09-23T11:40:03.634Z,97.10
2022-09-23T11:43:04.848Z,93.60
2022-09-23T11:46:02.425Z,93.90
2022-09-23T11:49:01.401Z,93.10
2022-09-23T11:52:03.317Z,93.00
2022-09-23T11:55:03.129Z,92.00
2022-09-23T11:58:01.419Z,92.00
2022-09-23T12:01:00.822Z,92.80
2022-09-23T12:04:00.902Z,91.20
2022-09-23T12:07:03.469Z,90.30
2022-09-23T12:10:05.500Z,94.00
2022-09-23T12:13:05.130Z,92.20
2022-09-23T12:16:15.158Z,94.10
2022-09-23T12:22:11.220Z,87.70
2022-09-23T12:25:15.431Z,89.80
2022-09-23T12:28:13.025Z,87.40
2022-09-23T12:31:06.152Z,87.80
2022-09-23T12:33:59.844Z,84.70
2022-09-23T12:36:51.789Z,83.30
2022-09-23T12:39:43.858Z,85.00
2022-09-23T12:42:34.446Z,86.00
2022-09-23T12:45:43.175Z,88.20
2022-09-23T12:49:00.679Z,84.20
2022-09-23T12:52:15.416Z,85.20
2022-09-23T12:55:45.612Z,85.60
2022-09-23T12:59:02.343Z,86.70
2022-09-23T13:01:55.688Z,86.30
2022-09-23T13:05:20.755Z,86.50
2022-09-23T13:08:14.669Z,85.00
2022-09-23T13:11:07.641Z,80.10
2022-09-23T13:13:57.994Z,81.40
2022-09-23T13:16:47.991Z,83.30
2022-09-23T13:19:48.193Z,84.10
2022-09-23T13:23:14.403Z,84.40
2022-09-23T13:26:11.445Z,81.80
2022-09-23T13:29:01.731Z,79.70
2022-09-23T13:31:51.428Z,81.30
2022-09-23T13:37:45.228Z,78.20
2022-09-23T13:40:36.137Z,81.60
2022-09-23T13:43:31.925Z,83.20
2022-09-23T13:46:23.165Z,83.30
2022-09-23T13:49:24.707Z,84.80
2022-09-23T13:52:26.815Z,82.90
2022-09-23T13:55:30.371Z,84.10
2022-09-23T13:58:21.901Z,84.20
2022-09-23T14:01:23.803Z,83.90
2022-09-23T14:04:26.179Z,84.80
2022-09-23T14:07:19.103Z,83.30
2022-09-23T14:10:10.050Z,83.30
2022-09-23T14:13:02.909Z,83.10
2022-09-23T14:15:53.875Z,79.90
2022-09-23T14:18:46.699Z,81.70
2022-09-23T14:21:37.547Z,82.40
2022-09-23T14:24:33.213Z,81.30
2022-09-23T14:27:28.769Z,83.90
2022-09-23T14:30:19.677Z,84.70
2022-09-23T14:33:11.966Z,84.20
2022-09-23T14:36:06.991Z,85.80
2022-09-23T14:39:02.433Z,85.80
2022-09-23T14:41:52.103Z,85.70
2022-09-23T14:44:41.505Z,86.80
2022-09-23T14:47:33.260Z,87.00
2022-09-23T14:50:40.831Z,86.50
2022-09-23T14:53:42.611Z,87.50
2022-09-23T14:56:43.977Z,85.90
2022-09-23T14:59:36.123Z,84.60
2022-09-23T15:02:35.336Z,84.90
2022-09-23T15:05:32.616Z,85.20
2022-09-23T15:08:25.435Z,86.90
2022-09-23T15:11:14.220Z,84.70
2022-09-23T15:14:33.152Z,85.90
2022-09-23T15:17:25.577Z,86.10
2022-09-23T15:20:25.017Z,91.00
2022-09-23T15:23:35.774Z,90.80
2022-09-23T15:26:26.449Z,87.10
2022-09-23T15:29:15.574Z,88.30
2022-09-23T15:32:08.594Z,88.30
2022-09-23T15:43:28.399Z,99.90
2022-09-23T15:46:20.762Z,93.70
2022-09-23T15:49:16.437Z,98.00
2022-09-23T15:52:07.224Z,97.40
2022-09-23T15:57:47.828Z,99.90
2022-09-23T16:00:37.969Z,99.90
2022-09-23T16:06:20.713Z,99.90
2022-09-23T16:09:10.501Z,92.10
2022-09-23T16:12:02.798Z,92.30
2022-09-23T16:14:51.642Z,92.10
2022-09-23T16:17:42.101Z,92.50
2022-09-23T16:20:31.870Z,92.80
2022-09-23T16:23:37.776Z,99.90
2022-09-23T16:26:29.856Z,99.90
2022-09-23T16:37:48.908Z,99.90
2022-09-23T16:54:54.546Z,99.90
2022-09-23T16:57:44.134Z,99.90
2022-09-23T17:00:50.266Z,99.90
2022-09-23T17:03:43.166Z,99.90
2022-09-23T19:07:57.968Z,99.90
2022-09-23T19:10:58.106Z,99.90
2022-09-23T19:13:49.739Z,99.90
2022-09-23T19:16:42.125Z,99.90
2022-09-23T19:19:33.166Z,99.90
2022-09-23T19:22:27.701Z,99.90
2022-09-23T19:25:17.621Z,99.90
2022-09-23T19:28:11.467Z,99.90
2022-09-23T19:31:11.974Z,99.90
2022-09-23T19:34:02.519Z,99.90
2022-09-23T19:36:55.284Z,99.90
2022-09-23T19:39:49.255Z,99.90
2022-09-23T19:42:39.726Z,99.90
2022-09-23T19:45:29.531Z,99.90
2022-09-23T19:48:19.972Z,99.90
2022-09-23T19:51:14.145Z,99.90
2022-09-23T19:54:06.973Z,99.90
2022-09-23T19:56:59.486Z,99.90
2022-09-23T19:59:57.262Z,99.90
2022-09-23T20:02:54.637Z,99.90
2022-09-23T20:05:56.654Z,99.90
2022-09-23T20:08:47.822Z,99.90
2022-09-23T20:11:40.609Z,99.90
2022-09-23T20:14:35.710Z,99.90
2022-09-23T20:17:29.771Z,99.90
2022-09-23T20:20:24.421Z,99.90
2022-09-23T20:23:16.963Z,99.90
2022-09-23T20:26:28.127Z,99.90
2022-09-23T20:29:21.160Z,99.90
2022-09-23T20:32:17.257Z,99.90
2022-09-23T20:35:10.345Z,99.90
2022-09-23T20:38:07.861Z,99.90
2022-09-23T20:40:57.500Z,99.90
2022-09-23T20:43:49.345Z,99.90
2022-09-23T20:46:44.126Z,99.90
2022-09-23T20:49:38.583Z,99.90
2022-09-23T20:52:30.164Z,99.90
2022-09-23T20:55:21.933Z,99.90
2022-09-23T20:58:12.449Z,99.90
2022-09-23T21:01:03.896Z,99.90
2022-09-23T21:03:56.006Z,99.90
2022-09-23T21:06:45.565Z,99.90
2022-09-23T21:09:34.990Z,99.90
2022-09-23T21:26:20.555Z,99.90
2022-09-23T21:29:11.782Z,99.90
2022-09-23T21:32:02.046Z,99.90
2022-09-23T21:34:52.549Z,99.90
2022-09-23T21:37:43.212Z,99.90
2022-09-23T21:40:57.954Z,99.90
2022-09-23T21:43:50.052Z,99.90
2022-09-23T21:46:39.789Z,99.90
2022-09-23T21:49:29.328Z,99.90
2022-09-23T21:52:18.331Z,99.90
2022-09-23T21:55:08.411Z,99.90
2022-09-23T21:57:58.912Z,99.90
2022-09-23T22:00:50.181Z,99.90
2022-09-23T22:03:40.252Z,99.90
2022-09-23T22:06:30.846Z,99.90
2022-09-23T22:09:21.597Z,99.90
2022-09-23T22:12:13.098Z,99.90
2022-09-23T22:15:02.463Z,99.90
2022-09-23T22:17:52.959Z,99.90
2022-09-23T22:20:41.930Z,99.90
2022-09-23T22:23:30.946Z,99.90
2022-09-23T22:26:19.817Z,99.90
2022-09-23T22:29:27.595Z,99.90
2022-09-23T22:32:33.731Z,99.90
2022-09-23T22:35:24.329Z,99.90
2022-09-23T22:38:14.304Z,99.90
2022-09-23T22:41:03.956Z,99.90
2022-09-23T22:43:53.909Z,99.90
2022-09-23T22:46:43.051Z,99.90
2022-09-23T22:49:33.008Z,99.90
2022-09-23T22:52:24.763Z,99.90
2022-09-23T22:55:13.854Z,99.90
2022-09-23T22:58:21.164Z,99.90
2022-09-23T23:01:11.873Z,99.90
2022-09-23T23:04:02.759Z,99.90
2022-09-23T23:06:52.103Z,99.90
2022-09-23T23:09:44.960Z,99.90
2022-09-23T23:12:34.583Z,99.90
2022-09-23T23:15:24.053Z,99.90
2022-09-23T23:18:13.188Z,99.90
2022-09-23T23:21:10.355Z,99.90
2022-09-23T23:23:59.572Z,99.90
2022-09-23T23:26:51.451Z,99.90
2022-09-23T23:29:40.659Z,99.90
2022-09-23T23:32:29.748Z,99.90
2022-09-23T23:35:18.711Z,99.90
2022-09-23T23:38:07.923Z,99.90
2022-09-23T23:40:57.942Z,99.90
2022-09-23T23:43:50.153Z,99.90
2022-09-23T23:46:39.243Z,99.90
2022-09-23T23:49:29.235Z,99.90
2022-09-23T23:52:18.744Z,99.90
2022-09-23T23:55:08.500Z,99.90
2022-09-23T23:58:03.437Z,99.90
